Time;durP1;ratioP1;P1;durP2;ratioP2;P2;SDS_P1;SDS_P2;PMS_P1;PMS_P2;Temp;Humidity;BMP_temperature;BMP_pressure;BME280_temperature;BME280_humidity;BME280_pressure;Samples;Min_cycle;Max_cycle;Signal;HPM_P1;HPM_P2
2022/11/21 00:00:44;;;;;;;17.23;8.45;;;1.60;92.40;;;;;;5009666;28;20600;-81
2022/11/21 00:03:11;;;;;;;16.52;7.95;;;1.60;92.20;;;;;;5008274;28;20477;-80
2022/11/21 00:05:46;;;;;;;16.45;8.52;;;1.70;92.30;;;;;;5008366;28;20595;-78
2022/11/21 00:08:15;;;;;;;16.17;8.48;;;1.70;92.20;;;;;;5006033;28;20030;-78
2022/11/21 00:10:41;;;;;;;17.58;8.30;;;1.70;92.10;;;;;;5011828;28;20043;-78
2022/11/21 00:13:19;;;;;;;19.48;8.77;;;1.70;92.20;;;;;;5007724;28;20077;-78
2022/11/21 00:15:45;;;;;;;15.18;8.50;;;1.70;92.20;;;;;;5007878;28;20038;-79
2022/11/21 00:18:11;;;;;;;17.83;8.25;;;1.70;92.30;;;;;;5008976;28;20040;-78
2022/11/21 00:20:38;;;;;;;19.05;8.93;;;1.70;92.30;;;;;;5010570;28;20107;-79
2022/11/21 00:23:04;;;;;;;17.50;8.38;;;1.70;92.40;;;;;;5007391;28;20041;-78
2022/11/21 00:25:31;;;;;;;16.35;8.25;;;1.70;92.20;;;;;;5008074;28;20484;-78
2022/11/21 00:27:57;;;;;;;18.30;8.95;;;1.70;92.20;;;;;;5003240;28;20553;-78
2022/11/21 00:30:22;;;;;;;19.50;8.88;;;1.70;92.20;;;;;;5004054;28;20087;-78
2022/11/21 00:32:48;;;;;;;20.13;9.75;;;1.70;92.20;;;;;;5005748;28;20038;-78
2022/11/21 00:35:14;;;;;;;16.23;8.20;;;1.70;92.20;;;;;;5001962;28;20041;-78
2022/11/21 00:37:40;;;;;;;17.40;9.23;;;1.70;92.20;;;;;;5008844;28;20519;-78
2022/11/21 00:40:06;;;;;;;18.98;8.85;;;1.70;92.20;;;;;;5010337;28;20034;-78
2022/11/21 00:42:32;;;;;;;20.75;9.00;;;1.70;92.40;;;;;;5010228;28;20130;-78
2022/11/21 00:44:57;;;;;;;18.60;9.05;;;1.70;92.50;;;;;;5008953;28;20104;-79
2022/11/21 00:47:23;;;;;;;19.63;10.18;;;1.70;92.40;;;;;;5006216;28;20033;-78
2022/11/21 00:49:49;;;;;;;21.02;9.05;;;1.80;92.30;;;;;;5002427;28;20535;-80
2022/11/21 00:52:16;;;;;;;19.65;9.60;;;1.80;92.30;;;;;;5002380;28;20057;-80
2022/11/21 00:54:42;;;;;;;18.73;9.25;;;1.80;92.40;;;;;;5000108;28;20080;-80
2022/11/21 00:57:07;;;;;;;27.58;10.30;;;1.80;92.30;;;;;;5012071;28;20033;-80
2022/11/21 00:59:33;;;;;;;22.70;10.88;;;1.80;92.30;;;;;;5013491;28;20037;-81
2022/11/21 01:01:59;;;;;;;18.05;9.23;;;1.80;92.30;;;;;;5005666;28;20037;-80
2022/11/21 01:04:25;;;;;;;19.27;9.80;;;1.80;92.30;;;;;;5007269;28;20038;-80
2022/11/21 01:06:50;;;;;;;21.98;9.63;;;1.90;92.50;;;;;;5003850;28;20032;-80
2022/11/21 01:09:16;;;;;;;19.20;9.43;;;1.80;92.50;;;;;;5004224;28;20061;-80
2022/11/21 01:11:42;;;;;;;18.35;8.57;;;1.80;92.70;;;;;;4999220;28;20048;-81
2022/11/21 01:14:08;;;;;;;18.98;9.52;;;1.90;92.70;;;;;;5004137;28;20405;-80
2022/11/21 01:16:33;;;;;;;21.58;9.27;;;1.90;92.60;;;;;;5012425;28;20041;-78
2022/11/21 01:19:00;;;;;;;20.75;9.63;;;1.90;92.60;;;;;;5011209;28;20044;-80
2022/11/21 01:21:29;;;;;;;22.15;10.00;;;1.90;92.50;;;;;;5019983;28;20069;-80
2022/11/21 01:23:57;;;;;;;19.13;9.52;;;1.90;92.50;;;;;;5011425;28;20081;-80
2022/11/21 01:26:25;;;;;;;20.80;9.82;;;1.90;92.60;;;;;;5011997;28;20173;-78
2022/11/21 01:28:51;;;;;;;16.52;9.35;;;1.90;92.70;;;;;;5010177;28;20040;-80
2022/11/21 01:31:20;;;;;;;19.42;8.70;;;1.90;92.60;;;;;;5004405;28;20410;-78
2022/11/21 01:33:46;;;;;;;22.17;10.65;;;1.90;92.70;;;;;;5006409;28;20382;-80
2022/11/21 01:36:15;;;;;;;19.45;8.73;;;1.90;92.70;;;;;;5004274;28;20044;-81
2022/11/21 01:38:43;;;;;;;16.38;8.65;;;1.90;92.80;;;;;;5010320;28;20863;-77
2022/11/21 01:41:11;;;;;;;16.15;8.18;;;1.90;92.90;;;;;;5008037;28;20079;-77
2022/11/21 01:43:37;;;;;;;19.50;9.63;;;1.90;93.00;;;;;;5008224;28;20033;-78
2022/11/21 01:46:09;;;;;;;19.33;9.77;;;2.00;93.00;;;;;;5007627;28;20034;-77
2022/11/21 01:48:40;;;;;;;17.05;8.70;;;1.90;92.80;;;;;;5001944;28;20551;-80
2022/11/21 01:51:22;;;;;;;20.75;9.73;;;2.00;92.90;;;;;;5002894;28;20073;-77
2022/11/21 01:54:12;;;;;;;24.23;10.02;;;2.00;93.00;;;;;;5008346;28;20087;-80
2022/11/21 01:56:57;;;;;;;19.38;7.97;;;2.00;92.80;;;;;;5006136;28;20379;-81
2022/11/21 01:59:46;;;;;;;21.05;9.38;;;2.00;92.80;;;;;;5010417;28;20037;-80
2022/11/21 02:02:16;;;;;;;23.75;11.40;;;2.10;92.60;;;;;;5013944;28;20061;-81
2022/11/21 02:04:43;;;;;;;20.30;10.25;;;2.10;92.40;;;;;;5005718;28;20037;-80
2022/11/21 02:07:11;;;;;;;21.70;10.20;;;2.00;92.40;;;;;;5004148;28;20042;-80
2022/11/21 02:09:41;;;;;;;20.60;9.93;;;2.00;92.60;;;;;;4997585;28;20036;-80
2022/11/21 02:12:23;;;;;;;19.30;9.93;;;2.00;92.70;;;;;;5006585;28;20037;-80
2022/11/21 02:14:52;;;;;;;18.52;9.35;;;2.00;92.60;;;;;;5011744;28;20087;-80
2022/11/21 02:17:18;;;;;;;21.98;10.40;;;2.00;92.40;;;;;;5008870;28;20138;-80
2022/11/21 02:19:53;;;;;;;21.13;9.60;;;2.00;92.30;;;;;;5011190;28;20038;-79
2022/11/21 02:22:37;;;;;;;17.35;9.30;;;2.00;92.50;;;;;;5009686;28;20778;-79
2022/11/21 02:25:13;;;;;;;20.83;9.85;;;2.00;92.70;;;;;;5004265;28;20040;-79
2022/11/21 02:27:39;;;;;;;22.17;9.98;;;2.00;92.80;;;;;;5003113;28;20514;-80
2022/11/21 02:30:08;;;;;;;20.00;9.52;;;2.00;92.70;;;;;;5006095;28;20037;-79
2022/11/21 02:32:39;;;;;;;21.95;10.65;;;2.00;92.70;;;;;;5005765;28;20044;-80
2022/11/21 02:35:06;;;;;;;17.75;8.65;;;2.00;92.60;;;;;;5004721;28;20034;-80
2022/11/21 02:37:35;;;;;;;20.52;9.18;;;2.00;92.60;;;;;;5008834;28;20042;-79
2022/11/21 02:40:06;;;;;;;19.73;9.43;;;2.00;92.60;;;;;;5009119;28;20083;-80
2022/11/21 02:42:33;;;;;;;18.90;9.07;;;2.00;92.60;;;;;;5010025;28;20103;-80
2022/11/21 02:45:08;;;;;;;19.20;9.50;;;2.00;92.50;;;;;;5006818;28;20117;-80
2022/11/21 02:47:36;;;;;;;20.27;9.95;;;2.00;92.60;;;;;;5002093;28;20037;-81
2022/11/21 02:50:11;;;;;;;20.60;9.55;;;2.10;92.60;;;;;;5016975;28;20444;-80
2022/11/21 02:52:37;;;;;;;18.70;9.25;;;2.10;92.60;;;;;;5006841;28;20778;-80
2022/11/21 02:55:03;;;;;;;21.73;9.98;;;2.10;92.60;;;;;;5010954;28;20046;-80
2022/11/21 02:57:29;;;;;;;19.40;9.00;;;2.10;92.60;;;;;;5006026;28;20642;-80
2022/11/21 02:59:55;;;;;;;21.00;9.77;;;2.10;92.60;;;;;;5005005;28;20080;-79
2022/11/21 03:02:21;;;;;;;18.10;9.18;;;2.10;92.60;;;;;;5005188;28;20046;-80
2022/11/21 03:04:46;;;;;;;17.67;9.00;;;2.10;92.60;;;;;;5003387;28;20049;-81
2022/11/21 03:07:12;;;;;;;19.88;9.13;;;2.10;92.60;;;;;;5010310;28;20924;-81
2022/11/21 03:09:38;;;;;;;19.83;9.40;;;2.10;92.70;;;;;;5014432;28;20033;-79
2022/11/21 03:12:08;;;;;;;22.98;9.82;;;2.10;92.80;;;;;;5006591;28;20041;-80
2022/11/21 03:14:35;;;;;;;21.25;9.18;;;2.10;92.80;;;;;;5000654;28;20034;-80
2022/11/21 03:17:01;;;;;;;23.83;9.30;;;2.10;92.90;;;;;;5015284;28;20045;-80
2022/11/21 03:19:27;;;;;;;20.13;9.68;;;2.10;92.90;;;;;;5014328;28;20796;-80
2022/11/21 03:21:53;;;;;;;21.52;10.07;;;2.10;92.80;;;;;;5007958;28;20034;-80
2022/11/21 03:24:18;;;;;;;19.35;9.02;;;2.10;92.80;;;;;;5001730;28;20152;-79
2022/11/21 03:26:44;;;;;;;22.80;10.32;;;2.10;92.60;;;;;;5005945;28;20033;-78
2022/11/21 03:29:10;;;;;;;23.00;10.02;;;2.10;92.60;;;;;;5010616;28;20036;-80
2022/11/21 03:31:36;;;;;;;19.83;9.30;;;2.10;92.50;;;;;;5009731;28;20109;-80
2022/11/21 03:34:02;;;;;;;21.75;10.63;;;2.20;92.50;;;;;;5014659;28;20084;-79
2022/11/21 03:36:28;;;;;;;20.75;8.85;;;2.20;92.40;;;;;;5014323;28;20493;-80
2022/11/21 03:38:57;;;;;;;21.70;10.27;;;2.20;92.20;;;;;;5010042;28;20037;-80
2022/11/21 03:41:30;;;;;;;23.70;10.60;;;2.20;92.30;;;;;;5001741;28;20050;-80
2022/11/21 03:44:02;;;;;;;19.08;9.68;;;2.10;92.20;;;;;;5000898;28;20446;-80
2022/11/21 03:46:29;;;;;;;20.55;8.90;;;2.10;92.30;;;;;;5006847;28;20639;-80
2022/11/21 03:48:55;;;;;;;18.45;9.30;;;2.10;92.40;;;;;;5011117;28;20037;-80
2022/11/21 03:51:21;;;;;;;15.15;8.73;;;2.10;92.40;;;;;;5005963;28;20565;-80
2022/11/21 03:53:47;;;;;;;21.58;10.40;;;2.20;92.40;;;;;;5004948;28;20165;-76
2022/11/21 03:56:13;;;;;;;17.98;8.80;;;2.20;92.50;;;;;;5003339;28;20068;-76
2022/11/21 03:58:39;;;;;;;20.42;9.10;;;2.20;92.50;;;;;;5003013;28;20041;-75
2022/11/21 04:01:05;;;;;;;18.27;8.65;;;2.10;92.50;;;;;;5001362;28;20030;-76
2022/11/21 04:03:31;;;;;;;17.00;8.73;;;2.20;92.50;;;;;;5003279;28;20078;-75
2022/11/21 04:05:57;;;;;;;23.92;10.40;;;2.20;92.50;;;;;;5007886;28;20149;-75
2022/11/21 04:08:23;;;;;;;19.08;9.30;;;2.20;92.50;;;;;;5008015;28;20034;-75
2022/11/21 04:10:51;;;;;;;17.88;8.70;;;2.20;92.50;;;;;;5005726;28;20061;-75
2022/11/21 04:13:17;;;;;;;19.00;8.85;;;2.20;92.50;;;;;;5009028;28;20149;-75
2022/11/21 04:15:44;;;;;;;20.00;9.57;;;2.10;92.50;;;;;;5003356;28;20037;-76
2022/11/21 04:18:11;;;;;;;22.05;10.40;;;2.20;92.50;;;;;;5002863;28;20545;-75
2022/11/21 04:20:37;;;;;;;17.58;9.20;;;2.10;92.40;;;;;;5000969;28;20145;-76
2022/11/21 04:23:03;;;;;;;18.45;9.45;;;2.10;92.50;;;;;;5003994;28;20067;-76
2022/11/21 04:25:30;;;;;;;18.75;9.70;;;2.10;92.90;;;;;;5010350;28;20033;-75
2022/11/21 04:27:59;;;;;;;20.48;9.95;;;2.10;92.60;;;;;;5017905;28;20446;-75
2022/11/21 04:30:25;;;;;;;18.27;9.55;;;2.10;92.50;;;;;;5005787;28;20026;-76
2022/11/21 04:32:54;;;;;;;20.88;10.25;;;2.10;92.50;;;;;;5003911;28;20665;-75
2022/11/21 04:35:20;;;;;;;19.52;10.23;;;2.10;92.50;;;;;;5003869;28;20387;-76
2022/11/21 04:37:46;;;;;;;19.60;9.85;;;2.20;92.30;;;;;;5001664;28;20069;-76
2022/11/21 04:40:13;;;;;;;17.75;8.70;;;2.10;92.20;;;;;;5000641;28;20076;-76
2022/11/21 04:42:45;;;;;;;20.33;10.00;;;2.10;92.20;;;;;;5007671;28;20048;-76
2022/11/21 04:45:11;;;;;;;18.42;8.68;;;2.00;92.20;;;;;;5007143;28;20056;-75
2022/11/21 04:47:38;;;;;;;18.80;9.45;;;2.00;92.30;;;;;;5012297;28;20053;-76
2022/11/21 04:50:05;;;;;;;21.25;11.23;;;2.00;92.30;;;;;;5009006;28;20029;-76
2022/11/21 04:52:31;;;;;;;20.27;10.00;;;2.00;92.10;;;;;;5011536;28;20083;-76
2022/11/21 04:54:57;;;;;;;18.42;9.02;;;1.90;92.10;;;;;;5009221;28;20484;-75
2022/11/21 04:57:24;;;;;;;19.85;9.25;;;1.90;92.00;;;;;;5008545;28;20052;-76
2022/11/21 04:59:49;;;;;;;17.38;8.43;;;1.80;92.10;;;;;;5006498;28;20040;-75
2022/11/21 05:02:15;;;;;;;17.40;8.32;;;1.80;92.10;;;;;;5009964;28;20045;-76
2022/11/21 05:04:41;;;;;;;19.33;9.48;;;1.70;92.20;;;;;;5015133;28;20118;-76
2022/11/21 05:07:07;;;;;;;20.17;10.30;;;1.70;92.30;;;;;;5006398;28;20045;-76
2022/11/21 05:09:32;;;;;;;21.10;9.80;;;1.70;92.40;;;;;;5007523;28;20044;-76
2022/11/21 05:14:43;;;;;;;21.08;10.15;;;1.70;92.50;;;;;;5004280;28;20406;-76
2022/11/21 05:17:09;;;;;;;21.35;9.57;;;1.70;92.60;;;;;;5007245;28;20037;-76
2022/11/21 05:19:34;;;;;;;17.45;9.52;;;1.60;92.70;;;;;;5009545;28;20040;-76
2022/11/21 05:22:00;;;;;;;23.60;9.88;;;1.60;92.70;;;;;;5013492;28;20038;-76
2022/11/21 05:24:26;;;;;;;20.17;10.82;;;1.60;92.90;;;;;;5013170;28;20486;-75
2022/11/21 05:26:53;;;;;;;21.77;10.27;;;1.60;93.00;;;;;;5011123;28;20406;-76
2022/11/21 05:29:18;;;;;;;19.98;9.38;;;1.70;93.00;;;;;;5011108;28;20105;-76
2022/11/21 05:31:44;;;;;;;21.77;9.93;;;1.70;93.00;;;;;;5008604;28;20072;-76
2022/11/21 05:34:10;;;;;;;20.20;9.48;;;1.70;93.10;;;;;;5006814;28;20060;-75
2022/11/21 05:36:36;;;;;;;24.63;10.70;;;1.70;93.20;;;;;;5007145;28;20539;-76
2022/11/21 05:39:01;;;;;;;24.35;11.00;;;1.70;93.20;;;;;;5010102;28;20033;-76
2022/11/21 05:41:27;;;;;;;21.50;10.98;;;1.80;93.10;;;;;;5015287;28;20037;-76
2022/11/21 05:43:53;;;;;;;21.85;11.07;;;1.80;93.00;;;;;;5011789;28;20045;-76
2022/11/21 05:46:22;;;;;;;22.30;10.55;;;1.80;92.80;;;;;;5012032;28;20026;-76
2022/11/21 05:48:49;;;;;;;21.52;10.32;;;1.80;92.80;;;;;;5009608;28;20108;-76
2022/11/21 05:51:16;;;;;;;22.95;11.70;;;1.80;93.00;;;;;;5009011;28;20101;-76
2022/11/21 05:53:42;;;;;;;19.70;9.93;;;1.80;92.90;;;;;;5003340;28;20137;-76
2022/11/21 05:56:10;;;;;;;22.70;10.43;;;1.80;93.00;;;;;;5006099;28;20040;-76
2022/11/21 05:58:36;;;;;;;20.48;10.05;;;1.80;93.20;;;;;;5010432;28;20083;-76
2022/11/21 06:01:04;;;;;;;20.73;9.98;;;1.80;93.20;;;;;;5010912;28;20046;-76
2022/11/21 06:03:32;;;;;;;23.90;11.38;;;1.80;93.30;;;;;;5010600;28;20223;-75
2022/11/21 06:06:12;;;;;;;23.10;10.88;;;1.80;93.30;;;;;;5006865;28;20083;-76
2022/11/21 06:08:41;;;;;;;20.08;10.02;;;1.80;93.30;;;;;;5004277;28;20115;-76
2022/11/21 06:11:09;;;;;;;22.23;10.35;;;1.80;93.40;;;;;;5008872;28;20029;-76
2022/11/21 06:13:35;;;;;;;17.48;9.50;;;1.80;93.50;;;;;;5002451;28;20034;-76
2022/11/21 06:16:07;;;;;;;17.00;9.05;;;1.80;93.50;;;;;;5006665;28;20026;-76
2022/11/21 06:18:35;;;;;;;17.98;9.68;;;1.80;93.60;;;;;;5004342;28;20540;-76
2022/11/21 06:21:08;;;;;;;20.08;9.38;;;1.90;93.50;;;;;;5007961;28;20088;-76
2022/11/21 06:23:34;;;;;;;21.40;10.18;;;1.90;93.50;;;;;;5004882;28;20090;-76
2022/11/21 06:26:03;;;;;;;19.83;9.60;;;1.90;93.40;;;;;;5009726;28;20720;-76
2022/11/21 06:28:34;;;;;;;21.33;9.75;;;1.90;93.30;;;;;;5006159;28;20026;-69
2022/11/21 06:31:04;;;;;;;23.63;10.52;;;1.90;93.30;;;;;;5003188;28;20037;-77
2022/11/21 06:33:31;;;;;;;24.08;11.23;;;2.00;93.20;;;;;;5003201;28;20429;-77
2022/11/21 06:36:00;;;;;;;21.77;10.88;;;2.00;93.00;;;;;;4996705;28;20054;-80
2022/11/21 06:38:26;;;;;;;23.60;10.98;;;2.00;93.30;;;;;;5007389;28;20553;-81
2022/11/21 06:40:52;;;;;;;18.13;9.75;;;2.00;93.10;;;;;;5012478;28;20259;-79
2022/11/21 06:43:18;;;;;;;23.58;12.48;;;2.00;92.90;;;;;;5006955;28;20030;-81
2022/11/21 06:45:44;;;;;;;21.63;11.20;;;2.00;92.70;;;;;;5005924;28;20041;-75
2022/11/21 06:48:10;;;;;;;21.48;10.95;;;2.00;92.90;;;;;;5005334;28;20065;-80
2022/11/21 06:50:37;;;;;;;21.83;10.88;;;2.00;92.90;;;;;;5014815;28;20115;-81
2022/11/21 06:53:03;;;;;;;22.65;10.90;;;2.00;93.00;;;;;;5009868;28;20038;-81
2022/11/21 06:55:30;;;;;;;21.80;11.20;;;2.10;93.00;;;;;;5007729;28;20029;-78
2022/11/21 06:57:59;;;;;;;22.90;11.70;;;2.10;93.00;;;;;;5009222;28;20034;-72
2022/11/21 07:00:29;;;;;;;22.20;11.80;;;2.00;93.00;;;;;;5008391;28;20084;-77
2022/11/21 07:03:00;;;;;;;21.60;10.38;;;2.10;93.00;;;;;;5001771;28;20041;-77
2022/11/21 07:05:26;;;;;;;21.77;10.52;;;2.00;93.00;;;;;;5006879;28;20781;-77
2022/11/21 07:08:00;;;;;;;19.17;10.20;;;2.10;93.00;;;;;;5003285;28;20520;-76
2022/11/21 07:10:27;;;;;;;20.60;10.10;;;2.10;93.00;;;;;;5002739;28;20490;-77
2022/11/21 07:15:45;;;;;;;19.17;9.93;;;2.00;92.90;;;;;;5002104;28;20030;-77
2022/11/21 07:18:12;;;;;;;23.15;10.32;;;2.00;92.90;;;;;;4997389;28;20030;-78
2022/11/21 07:20:39;;;;;;;20.30;10.20;;;2.00;92.90;;;;;;4998523;28;20180;-77
2022/11/21 07:23:06;;;;;;;23.98;13.30;;;2.00;92.80;;;;;;5000900;28;20096;-77
2022/11/21 07:25:32;;;;;;;26.25;14.32;;;2.00;92.40;;;;;;5000248;28;20042;-81
2022/11/21 07:28:02;;;;;;;28.73;14.30;;;2.00;92.50;;;;;;5003844;28;20037;-78
2022/11/21 07:30:28;;;;;;;24.58;13.13;;;1.90;92.60;;;;;;5001696;28;20065;-76
2022/11/21 07:33:04;;;;;;;26.77;12.50;;;1.90;92.70;;;;;;5009873;28;20113;-77
2022/11/21 07:35:32;;;;;;;24.95;12.40;;;2.00;92.90;;;;;;5018132;28;20212;-77
2022/11/21 07:38:06;;;;;;;24.48;11.70;;;1.90;92.60;;;;;;5009168;28;20108;-78
2022/11/21 07:40:48;;;;;;;23.73;11.48;;;1.90;92.60;;;;;;4982645;28;20609;-76
2022/11/21 07:43:18;;;;;;;27.98;12.43;;;2.00;92.60;;;;;;4986892;28;20479;-79
2022/11/21 07:45:56;;;;;;;29.10;14.02;;;2.00;92.60;;;;;;4996574;28;20068;-75
2022/11/21 07:48:23;;;;;;;27.67;12.60;;;2.00;92.50;;;;;;4979527;28;20403;-82
2022/11/21 07:50:52;;;;;;;39.35;14.50;;;2.00;92.40;;;;;;4987330;28;20042;-75
2022/11/21 07:53:18;;;;;;;37.92;14.50;;;2.00;92.00;;;;;;4989677;28;20482;-75
2022/11/21 07:55:44;;;;;;;30.90;13.02;;;1.90;92.00;;;;;;4991711;28;20160;-79
2022/11/21 07:58:13;;;;;;;39.35;16.05;;;1.90;92.40;;;;;;4995287;28;20513;-79
2022/11/21 08:00:43;;;;;;;42.53;16.40;;;1.90;92.40;;;;;;4987068;28;20133;-79
2022/11/21 08:03:10;;;;;;;33.95;13.80;;;1.90;92.50;;;;;;4972348;28;20094;-75
2022/11/21 08:05:41;;;;;;;33.05;13.90;;;2.00;92.50;;;;;;4969608;28;20045;-79
2022/11/21 08:08:08;;;;;;;32.53;13.02;;;2.00;92.80;;;;;;4971270;28;20035;-79
2022/11/21 08:10:37;;;;;;;30.33;13.77;;;2.00;92.60;;;;;;4984162;28;20067;-77
2022/11/21 08:13:03;;;;;;;28.77;12.60;;;2.00;92.70;;;;;;4987107;28;20129;-75
2022/11/21 08:15:29;;;;;;;34.20;13.50;;;2.00;92.70;;;;;;4983418;28;20041;-71
2022/11/21 08:17:55;;;;;;;31.75;13.23;;;2.00;92.60;;;;;;4970445;28;20041;-77
2022/11/21 08:20:20;;;;;;;28.75;13.27;;;2.00;92.50;;;;;;4970741;28;20049;-77
2022/11/21 08:22:46;;;;;;;28.55;12.23;;;2.00;92.70;;;;;;4966062;28;20041;-75
2022/11/21 08:25:12;;;;;;;31.20;11.05;;;2.10;92.60;;;;;;4975061;28;20619;-77
2022/11/21 08:27:39;;;;;;;23.92;11.27;;;2.10;92.40;;;;;;4980808;28;20529;-74
2022/11/21 08:30:10;;;;;;;23.33;10.38;;;2.10;92.30;;;;;;4980181;28;20121;-77
2022/11/21 08:32:36;;;;;;;23.40;10.25;;;2.00;92.20;;;;;;4978491;28;20029;-75
2022/11/21 08:35:03;;;;;;;22.48;11.02;;;2.10;92.00;;;;;;4978694;28;20775;-75
2022/11/21 08:37:28;;;;;;;27.05;10.32;;;2.10;92.10;;;;;;4986265;28;20026;-75
2022/11/21 08:39:55;;;;;;;25.08;12.25;;;2.10;92.10;;;;;;4970753;28;20423;-76
2022/11/21 08:42:20;;;;;;;23.50;10.63;;;2.00;92.40;;;;;;4973762;28;20031;-76
2022/11/21 08:44:46;;;;;;;21.05;9.32;;;2.00;92.20;;;;;;4973827;28;20038;-77
2022/11/21 08:47:12;;;;;;;22.70;10.45;;;2.00;92.00;;;;;;4975691;28;20038;-77
2022/11/21 08:49:37;;;;;;;22.52;11.75;;;2.10;91.90;;;;;;4984594;28;20033;-74
2022/11/21 08:52:03;;;;;;;25.95;11.00;;;2.00;91.90;;;;;;4975853;28;20921;-74
2022/11/21 08:54:29;;;;;;;42.20;14.13;;;2.00;92.00;;;;;;4976957;28;20806;-75
2022/11/21 08:56:55;;;;;;;28.23;11.15;;;2.00;91.90;;;;;;4968893;28;20464;-74
2022/11/21 08:59:21;;;;;;;29.80;13.05;;;2.00;91.70;;;;;;4970225;28;20066;-69
2022/11/21 09:01:46;;;;;;;23.58;10.43;;;2.00;92.30;;;;;;4964536;28;20562;-70
2022/11/21 09:04:12;;;;;;;21.30;9.05;;;2.00;92.10;;;;;;4962839;28;20038;-74
2022/11/21 09:06:38;;;;;;;20.27;9.07;;;1.90;92.10;;;;;;4976916;28;20058;-76
2022/11/21 09:09:08;;;;;;;18.95;8.40;;;1.90;92.20;;;;;;4974239;28;20499;-76
2022/11/21 09:11:35;;;;;;;22.10;10.32;;;1.90;92.10;;;;;;4973856;28;20040;-73
2022/11/21 09:19:30;;;;;;;19.92;9.95;;;1.90;91.90;;;;;;4967896;28;20576;-74
2022/11/21 09:21:56;;;;;;;19.15;9.85;;;1.90;92.00;;;;;;4963744;28;20026;-73
2022/11/21 09:24:21;;;;;;;26.10;11.57;;;1.90;92.40;;;;;;4966582;28;20907;-74
2022/11/21 09:26:47;;;;;;;21.13;9.90;;;2.00;92.30;;;;;;4981556;28;20057;-74
2022/11/21 09:29:16;;;;;;;29.80;13.25;;;2.00;92.30;;;;;;4975510;28;20098;-74
2022/11/21 09:31:43;;;;;;;34.22;16.63;;;2.10;92.40;;;;;;4974184;28;20034;-74
2022/11/21 09:34:09;;;;;;;26.27;11.88;;;2.10;92.20;;;;;;4975262;28;20038;-75
2022/11/21 09:36:35;;;;;;;26.13;12.00;;;2.20;92.20;;;;;;4980011;28;20080;-72
2022/11/21 09:39:01;;;;;;;23.42;9.77;;;2.30;92.20;;;;;;4975803;28;20030;-73
2022/11/21 09:41:52;;;;;;;26.20;11.80;;;2.30;91.50;;;;;;4971851;28;20045;-73
2022/11/21 09:44:52;;;;;;;24.75;11.27;;;2.30;91.60;;;;;;4979896;28;20129;-73
2022/11/21 09:47:26;;;;;;;21.77;9.35;;;2.30;92.00;;;;;;4989384;28;20502;-72
2022/11/21 09:50:00;;;;;;;28.52;13.65;;;2.30;91.90;;;;;;4981358;28;20037;-76
2022/11/21 09:52:49;;;;;;;30.88;13.52;;;2.30;92.00;;;;;;4978166;28;20019;-73
2022/11/21 09:55:38;;;;;;;31.15;13.02;;;2.30;92.00;;;;;;4976853;28;20519;-73
2022/11/21 09:58:12;;;;;;;23.95;10.77;;;2.40;92.00;;;;;;4971485;28;20723;-71
2022/11/21 10:00:38;;;;;;;21.77;10.93;;;2.50;91.90;;;;;;4969237;28;20042;-70
2022/11/21 10:03:04;;;;;;;30.67;13.57;;;2.50;91.70;;;;;;4980640;28;20031;-69
2022/11/21 10:05:40;;;;;;;31.98;13.57;;;2.50;91.80;;;;;;4985120;28;20057;-68
2022/11/21 10:08:32;;;;;;;26.90;11.75;;;2.60;91.60;;;;;;4976565;28;20832;-68
2022/11/21 10:11:24;;;;;;;24.42;10.73;;;2.60;91.80;;;;;;4977610;28;20164;-71
2022/11/21 10:13:56;;;;;;;28.13;11.02;;;2.70;91.70;;;;;;4973847;28;20454;-70
2022/11/21 10:16:47;;;;;;;24.42;10.85;;;2.70;91.80;;;;;;4977965;28;20034;-69
2022/11/21 10:19:32;;;;;;;37.45;14.57;;;2.80;91.30;;;;;;4977833;28;20026;-70
2022/11/21 10:22:24;;;;;;;30.85;13.68;;;2.80;91.70;;;;;;4972287;28;20031;-68
2022/11/21 10:25:11;;;;;;;33.45;14.13;;;2.80;91.70;;;;;;4981964;28;20042;-70
2022/11/21 10:27:40;;;;;;;;;;;2.80;91.40;;;;;;4980613;28;20041;-70
2022/11/21 10:30:14;;;;;;;20.23;9.10;;;2.90;91.20;;;;;;4976453;28;19921;-69
2022/11/21 10:32:45;;;;;;;20.85;10.02;;;2.90;91.30;;;;;;4977225;28;20471;-70
2022/11/21 10:35:35;;;;;;;27.83;11.57;;;2.90;91.40;;;;;;4979971;28;20097;-71
2022/11/21 10:38:02;;;;;;;23.92;10.45;;;2.90;91.30;;;;;;4967528;28;20124;-71
2022/11/21 10:40:43;;;;;;;22.50;9.70;;;2.90;91.20;;;;;;4992962;28;20048;-70
2022/11/21 10:46:08;;;;;;;21.60;9.38;;;2.90;91.00;;;;;;4975955;28;20880;-71
2022/11/21 10:48:33;;;;;;;30.73;12.18;;;2.90;91.10;;;;;;4979797;28;20668;-70
2022/11/21 10:51:18;;;;;;;23.65;10.23;;;3.00;91.10;;;;;;4973093;28;20043;-71
2022/11/21 10:56:33;;;;;;;18.40;8.55;;;3.00;91.20;;;;;;4969000;28;20105;-72
2022/11/21 10:59:10;;;;;;;18.73;9.48;;;3.00;90.80;;;;;;4970561;28;20034;-73
2022/11/21 11:01:35;;;;;;;21.00;9.70;;;3.00;90.80;;;;;;4981640;28;20034;-67
2022/11/21 11:04:07;;;;;;;17.75;8.55;;;3.00;90.80;;;;;;4975123;28;20085;-73
2022/11/21 11:06:34;;;;;;;22.27;10.75;;;3.00;90.70;;;;;;4978365;28;20029;-72
2022/11/21 11:09:01;;;;;;;30.67;14.23;;;3.00;91.00;;;;;;4971524;28;20065;-72
2022/11/21 11:11:26;;;;;;;28.27;12.60;;;3.10;91.20;;;;;;4977273;28;20039;-73
2022/11/21 11:14:00;;;;;;;23.95;11.50;;;3.10;91.30;;;;;;4966666;28;20598;-72
2022/11/21 11:16:27;;;;;;;32.63;14.90;;;3.20;91.10;;;;;;4964466;28;20129;-71
2022/11/21 11:19:18;;;;;;;48.53;20.88;;;3.20;90.70;;;;;;4977153;28;20488;-73
2022/11/21 11:21:45;;;;;;;34.17;15.60;;;3.20;90.90;;;;;;4983521;28;20038;-73
2022/11/21 11:24:11;;;;;;;27.73;12.40;;;3.20;91.00;;;;;;4974314;28;20031;-72
2022/11/21 11:26:46;;;;;;;22.20;10.80;;;3.30;91.10;;;;;;4982526;28;20107;-73
2022/11/21 11:29:23;;;;;;;19.92;9.82;;;3.40;91.10;;;;;;4973381;28;20035;-73
2022/11/21 11:31:58;;;;;;;19.25;10.00;;;3.40;90.80;;;;;;4973367;28;20038;-70
2022/11/21 11:34:56;;;;;;;23.98;11.73;;;3.40;90.90;;;;;;4976697;28;20449;-73
2022/11/21 11:37:39;;;;;;;21.20;10.13;;;3.50;90.90;;;;;;4979270;28;20050;-74
2022/11/21 11:40:20;;;;;;;21.73;10.00;;;3.50;90.10;;;;;;4979685;28;20045;-74
2022/11/21 11:49:20;;;;;;;17.70;9.40;;;3.60;89.80;;;;;;4973314;28;20117;-73
2022/11/21 11:51:52;;;;;;;19.58;8.82;;;3.60;89.40;;;;;;4972479;28;20874;-75
2022/11/21 11:54:27;;;;;;;16.08;9.05;;;3.70;89.90;;;;;;4974361;28;20093;-70
2022/11/21 11:56:54;;;;;;;17.13;8.57;;;3.70;90.00;;;;;;4981214;28;20486;-74
2022/11/21 11:59:35;;;;;;;14.13;7.43;;;3.80;90.00;;;;;;4977452;28;20182;-73
2022/11/21 12:02:19;;;;;;;17.42;7.28;;;3.80;89.80;;;;;;4973376;28;20131;-71
2022/11/21 12:05:12;;;;;;;17.85;9.05;;;3.80;89.80;;;;;;4982950;28;20061;-71
2022/11/21 12:07:47;;;;;;;18.23;9.57;;;3.90;88.90;;;;;;4970429;28;20046;-70
2022/11/21 12:12:05;;;;;;;17.48;8.88;;;3.90;88.40;;;;;;4976059;28;20034;-76
2022/11/21 12:13:28;;;;;;;17.02;8.27;;;3.90;89.00;;;;;;4974521;28;20120;-73
2022/11/21 12:15:58;;;;;;;16.15;8.57;;;4.00;88.80;;;;;;4980073;28;20031;-76
2022/11/21 12:18:45;;;;;;;18.45;8.77;;;4.00;89.00;;;;;;4985140;28;20116;-72
2022/11/21 12:21:20;;;;;;;15.45;8.57;;;4.00;88.80;;;;;;4969762;28;20081;-69
2022/11/21 12:23:50;;;;;;;17.88;8.38;;;4.10;89.00;;;;;;4947259;28;20825;-72
2022/11/21 12:26:40;;;;;;;16.63;8.68;;;4.10;88.80;;;;;;4974122;28;20034;-74
2022/11/21 12:29:27;;;;;;;16.50;8.60;;;4.20;88.50;;;;;;4967322;28;20050;-74
2022/11/21 12:31:56;;;;;;;15.40;8.85;;;4.20;88.60;;;;;;4962165;28;20125;-72
2022/11/21 12:34:34;;;;;;;15.98;8.63;;;4.20;88.30;;;;;;4962508;28;20034;-72
2022/11/21 12:37:24;;;;;;;17.40;8.60;;;4.20;87.90;;;;;;4974494;28;20389;-71
2022/11/21 12:39:52;;;;;;;18.75;8.85;;;4.20;86.80;;;;;;4975768;28;20123;-71
2022/11/21 12:45:23;;;;;;;14.93;8.88;;;4.20;86.10;;;;;;4970595;28;20069;-70
2022/11/21 12:54:32;;;;;;;14.35;7.90;;;4.10;87.50;;;;;;4976018;28;20081;-71
2022/11/21 12:57:10;;;;;;;15.50;8.20;;;4.10;88.10;;;;;;4971741;28;20038;-71
2022/11/21 13:00:04;;;;;;;13.50;7.40;;;4.20;87.80;;;;;;4972489;28;20026;-68
2022/11/21 13:02:48;;;;;;;10.82;6.13;;;4.20;87.80;;;;;;4963682;28;20038;-67
2022/11/21 13:05:48;;;;;;;12.50;7.50;;;4.20;87.30;;;;;;4963093;28;20179;-68
2022/11/21 13:08:21;;;;;;;16.00;8.52;;;4.20;86.10;;;;;;4959102;28;20042;-68
2022/11/21 13:11:57;;;;;;;12.60;7.75;;;4.10;86.00;;;;;;4978654;28;20025;-69
2022/11/21 13:13:49;;;;;;;14.77;8.18;;;4.00;86.60;;;;;;4979456;28;20045;-70
2022/11/21 13:16:35;;;;;;;13.18;6.03;;;3.90;88.00;;;;;;4978093;28;20509;-69
2022/11/21 13:19:20;;;;;;;12.75;7.65;;;3.90;88.20;;;;;;4974694;28;20819;-69
2022/11/21 13:21:48;;;;;;;11.35;7.07;;;4.00;88.40;;;;;;4977237;28;20780;-69
2022/11/21 13:24:48;;;;;;;12.00;6.97;;;4.00;87.60;;;;;;4971233;28;20038;-69
2022/11/21 13:27:35;;;;;;;13.07;7.53;;;4.00;87.40;;;;;;4982069;28;20661;-69
2022/11/21 13:30:07;;;;;;;10.95;6.50;;;3.90;86.20;;;;;;4976733;28;20038;-71
2022/11/21 13:32:51;;;;;;;15.00;7.07;;;3.90;87.00;;;;;;4982803;28;20552;-71